Time;durP1;ratioP1;P1;durP2;ratioP2;P2;SDS_P1;SDS_P2;PMS_P1;PMS_P2;Temp;Humidity;BMP_temperature;BMP_pressure;BME280_temperature;BME280_humidity;BME280_pressure;Samples;Min_cycle;Max_cycle;Signal;HPM_P1;HPM_P2
2022/01/30 00:01:01;;;;;;;;;;;;;;;5.53;54.24;99882.66;4418293;32;31847;-78
2022/01/30 00:03:30;;;;;;;;;;;;;;;5.64;54.74;99879.22;4444686;32;34388;-78
2022/01/30 00:05:57;;;;;;;;;;;;;;;5.44;55.16;99885.09;4429600;32;34049;-78
2022/01/30 00:08:29;;;;;;;;;;;;;;;5.46;56.33;99885.00;4405688;32;35081;-78
2022/01/30 00:11:05;;;;;;;;;;;;;;;5.50;56.30;99871.47;4431581;32;33359;-78
2022/01/30 00:13:33;;;;;;;;;;;;;;;5.92;55.88;99871.00;4429920;32;34644;-78
2022/01/30 00:16:05;;;;;;;;;;;;;;;6.03;55.93;99865.75;4430419;32;34633;-78
2022/01/30 00:18:49;;;;;;;;;;;;;;;5.69;57.11;99853.34;4418389;32;33987;-78
2022/01/30 00:23:57;;;;;;;;;;;;;;;5.82;57.21;99844.44;4431047;32;34498;-78
2022/01/30 00:26:30;;;;;;;;;;;;;;;5.66;57.06;99838.56;4398674;32;35355;-78
2022/01/30 00:28:57;;;;;;;;;;;;;;;5.27;57.95;99837.16;4444016;32;35310;-78
2022/01/30 00:31:26;;;;;;;;;;;;;;;5.29;57.69;99830.78;4430837;32;33468;-78
2022/01/30 00:34:16;;;;;;;;;;;;;;;5.12;58.85;99811.88;4431873;32;34615;-78
2022/01/30 00:36:46;;;;;;;;;;;;;;;5.32;57.87;99798.09;4444159;32;35679;-79
2022/01/30 00:39:14;;;;;;;;;;;;;;;5.06;58.08;99791.22;4430965;32;33885;-78
2022/01/30 00:41:43;;;;;;;;;;;;;;;5.22;58.45;99786.53;4444327;32;32822;-78
2022/01/30 00:44:15;;;;;;;;;;;;;;;4.89;57.91;99786.31;4411979;32;33039;-78
2022/01/30 00:46:45;;;;;;;;;;;;;;;5.29;57.66;99788.59;4432456;32;36045;-78
2022/01/30 00:49:14;;;;;;;;;;;;;;;5.18;57.36;99785.06;4432979;32;34465;-78
2022/01/30 00:51:41;;;;;;;;;;;;;;;5.83;56.09;99787.19;4419828;32;33746;-78
2022/01/30 00:54:09;;;;;;;;;;;;;;;6.18;55.03;99785.38;4431856;32;34331;-78
2022/01/30 00:56:38;;;;;;;;;;;;;;;6.30;54.42;99787.06;4432296;32;35177;-78
2022/01/30 00:59:06;;;;;;;;;;;;;;;6.12;55.03;99772.63;4446793;32;35420;-78
2022/01/30 01:01:33;;;;;;;;;;;;;;;5.86;55.86;99765.88;4445464;32;32470;-78
2022/01/30 01:04:02;;;;;;;;;;;;;;;6.27;54.34;99763.53;4431921;32;33744;-78
2022/01/30 01:06:32;;;;;;;;;;;;;;;6.28;54.94;99784.56;4432631;32;35317;-78
2022/01/30 01:09:02;;;;;;;;;;;;;;;6.44;54.50;99779.75;4432124;32;35064;-78
2022/01/30 01:24:56;;;;;;;;;;;;;;;5.89;54.91;99733.94;4434567;32;34903;-78
2022/01/30 01:27:25;;;;;;;;;;;;;;;6.32;54.32;99742.87;4423212;32;35691;-78
2022/01/30 01:29:53;;;;;;;;;;;;;;;6.07;54.84;99749.22;4419183;32;34224;-78
2022/01/30 01:32:21;;;;;;;;;;;;;;;6.21;54.64;99740.22;4446584;32;33559;-78
2022/01/30 01:34:50;;;;;;;;;;;;;;;6.04;54.93;99725.69;4431509;32;34156;-78
2022/01/30 01:37:18;;;;;;;;;;;;;;;6.30;54.47;99721.88;4419696;32;34767;-78
2022/01/30 01:39:45;;;;;;;;;;;;;;;6.43;54.02;99700.62;4417751;32;34360;-78
2022/01/30 01:42:16;;;;;;;;;;;;;;;6.77;53.10;99702.25;4419266;32;32748;-78
2022/01/30 01:44:49;;;;;;;;;;;;;;;6.98;52.58;99697.91;4431622;32;34208;-78
2022/01/30 01:47:20;;;;;;;;;;;;;;;7.06;52.45;99688.37;4431097;32;36749;-78
2022/01/30 01:49:51;;;;;;;;;;;;;;;7.02;52.37;99679.03;4432593;32;34503;-78
2022/01/30 01:52:23;;;;;;;;;;;;;;;7.10;52.22;99671.28;4432524;32;33351;-78
2022/01/30 01:54:55;;;;;;;;;;;;;;;6.78;52.87;99669.56;4428892;32;34621;-78
2022/01/30 01:57:24;;;;;;;;;;;;;;;6.85;52.45;99671.63;4418122;32;33810;-78
2022/01/30 01:59:52;;;;;;;;;;;;;;;6.58;52.58;99663.25;4418692;32;35195;-78
2022/01/30 02:02:28;;;;;;;;;;;;;;;6.75;52.33;99665.41;4446188;32;33670;-78
2022/01/30 02:05:01;;;;;;;;;;;;;;;6.80;51.95;99667.66;4432258;32;34319;-78
2022/01/30 02:08:21;;;;;;;;;;;;;;;6.84;52.06;99661.16;4419619;32;34136;-78
2022/01/30 02:10:35;;;;;;;;;;;;;;;6.91;51.71;99651.78;4420517;32;34786;-78
2022/01/30 02:13:39;;;;;;;;;;;;;;;7.10;51.30;99650.13;4446071;32;32263;-78
2022/01/30 02:26:56;;;;;;;;;;;;;;;6.83;52.37;99618.03;4427939;32;32537;-78
2022/01/30 02:29:25;;;;;;;;;;;;;;;6.67;52.57;99624.66;4431504;32;35036;-78
2022/01/30 02:31:56;;;;;;;;;;;;;;;6.62;52.62;99613.63;4431818;32;34655;-78
2022/01/30 02:34:28;;;;;;;;;;;;;;;6.46;53.21;99605.25;4445648;32;33408;-78
2022/01/30 02:36:57;;;;;;;;;;;;;;;6.32;53.84;99602.88;4418970;32;34699;-79
2022/01/30 02:39:26;;;;;;;;;;;;;;;6.20;54.49;99602.06;4431700;32;33964;-78
2022/01/30 02:41:54;;;;;;;;;;;;;;;5.98;56.05;99593.31;4431550;32;35464;-78
2022/01/30 02:46:56;;;;;;;;;;;;;;;5.59;59.04;99572.63;4430971;32;34576;-79
2022/01/30 02:49:57;;;;;;;;;;;;;;;5.72;59.51;99573.34;4419127;32;35033;-78
2022/01/30 02:52:17;;;;;;;;;;;;;;;5.97;59.09;99573.97;4433999;32;35409;-78
2022/01/30 02:54:50;;;;;;;;;;;;;;;5.90;59.31;99562.25;4432640;32;33402;-78
2022/01/30 02:57:20;;;;;;;;;;;;;;;6.04;59.46;99559.34;4407234;32;35411;-78
2022/01/30 02:59:49;;;;;;;;;;;;;;;6.17;59.24;99553.91;4432055;32;34450;-78
2022/01/30 03:02:17;;;;;;;;;;;;;;;6.51;58.35;99552.88;4445762;32;34413;-79
2022/01/30 03:04:46;;;;;;;;;;;;;;;6.52;58.35;99546.63;4431875;32;32617;-78
2022/01/30 03:07:14;;;;;;;;;;;;;;;6.28;59.07;99556.53;4430970;32;33381;-78
2022/01/30 03:09:42;;;;;;;;;;;;;;;6.49;58.42;99537.16;4405771;32;35496;-79
2022/01/30 03:12:14;;;;;;;;;;;;;;;6.49;58.24;99538.94;4445653;32;34806;-78
2022/01/30 03:14:42;;;;;;;;;;;;;;;6.67;57.63;99548.00;4417658;32;35722;-78
2022/01/30 03:17:10;;;;;;;;;;;;;;;6.41;58.08;99534.28;4431322;32;33963;-79
2022/01/30 03:19:39;;;;;;;;;;;;;;;6.33;58.73;99542.00;4431777;32;34245;-78
2022/01/30 03:22:06;;;;;;;;;;;;;;;6.13;59.27;99532.19;4430719;32;34762;-79
2022/01/30 03:24:36;;;;;;;;;;;;;;;5.95;59.90;99520.47;4431215;32;33011;-78
2022/01/30 03:27:08;;;;;;;;;;;;;;;6.21;59.54;99519.22;4431508;32;35168;-78
2022/01/30 03:29:38;;;;;;;;;;;;;;;6.14;59.74;99507.47;4431341;32;35826;-78
2022/01/30 03:32:08;;;;;;;;;;;;;;;6.27;59.67;99509.94;4417861;32;36174;-78
2022/01/30 03:34:37;;;;;;;;;;;;;;;6.10;60.44;99513.09;4431507;32;33256;-78
2022/01/30 03:37:07;;;;;;;;;;;;;;;6.28;60.00;99501.06;4406751;32;33783;-79
2022/01/30 03:39:36;;;;;;;;;;;;;;;6.17;60.45;99504.56;4431137;32;36016;-78
2022/01/30 03:42:07;;;;;;;;;;;;;;;6.34;60.04;99511.97;4430890;32;34481;-79
2022/01/30 03:44:36;;;;;;;;;;;;;;;6.27;60.29;99502.03;4431790;32;33271;-78
2022/01/30 03:47:06;;;;;;;;;;;;;;;6.33;60.08;99493.62;4418656;32;34245;-78
2022/01/30 03:49:35;;;;;;;;;;;;;;;6.14;60.79;99494.25;4431396;32;34746;-78
2022/01/30 03:52:06;;;;;;;;;;;;;;;6.23;60.41;99485.59;4413442;32;35137;-78
2022/01/30 03:54:36;;;;;;;;;;;;;;;6.23;60.73;99513.81;4431332;32;33733;-78
2022/01/30 03:57:05;;;;;;;;;;;;;;;6.49;59.81;99508.09;4428374;32;34046;-79
2022/01/30 03:59:36;;;;;;;;;;;;;;;6.06;61.06;99501.12;4443735;32;33906;-78
2022/01/30 04:02:03;;;;;;;;;;;;;;;6.17;61.12;99486.06;4429600;32;34818;-78
2022/01/30 04:04:34;;;;;;;;;;;;;;;6.20;60.97;99487.62;4431387;32;33498;-78
2022/01/30 04:07:05;;;;;;;;;;;;;;;6.01;61.63;99482.16;4413705;32;35307;-78
2022/01/30 04:09:35;;;;;;;;;;;;;;;6.11;61.50;99485.72;4431589;32;35078;-78
2022/01/30 04:12:09;;;;;;;;;;;;;;;6.16;61.11;99502.06;4418133;32;36163;-78
2022/01/30 04:14:40;;;;;;;;;;;;;;;6.18;61.24;99487.78;4417870;32;33805;-79
2022/01/30 04:17:11;;;;;;;;;;;;;;;5.90;62.42;99490.97;4430781;32;34984;-78
2022/01/30 04:19:40;;;;;;;;;;;;;;;6.32;61.40;99471.62;4405752;32;36378;-78
2022/01/30 04:22:08;;;;;;;;;;;;;;;6.23;61.71;99472.38;4439800;32;34169;-79
2022/01/30 04:24:38;;;;;;;;;;;;;;;6.21;61.79;99482.25;4446595;32;32980;-78
2022/01/30 04:27:07;;;;;;;;;;;;;;;6.32;61.56;99462.84;4446595;32;33732;-79
2022/01/30 04:29:56;;;;;;;;;;;;;;;6.35;61.35;99483.75;4411292;32;33810;-78
2022/01/30 04:32:33;;;;;;;;;;;;;;;6.19;61.98;99481.53;4446380;32;34726;-79
2022/01/30 04:35:11;;;;;;;;;;;;;;;6.28;62.16;99472.84;4433170;32;33711;-79
2022/01/30 04:37:58;;;;;;;;;;;;;;;6.31;62.50;99463.81;4434667;32;34771;-78
2022/01/30 04:57:57;;;;;;;;;;;;;;;6.42;62.44;99471.72;4364784;32;33390;-78
2022/01/30 05:06:00;;;;;;;;;;;;;;;6.49;62.50;99476.38;4368754;32;35336;-79
2022/01/30 05:08:31;;;;;;;;;;;;;;;6.73;62.06;99479.59;4356374;32;31995;-79
2022/01/30 05:11:04;;;;;;;;;;;;;;;6.81;61.63;99476.34;4368023;32;33457;-79
2022/01/30 05:13:49;;;;;;;;;;;;;;;6.62;62.25;99471.72;4372427;32;36130;-79
2022/01/30 05:16:23;;;;;;;;;;;;;;;6.54;62.63;99476.81;4374282;32;34320;-79
2022/01/30 05:18:51;;;;;;;;;;;;;;;6.70;62.20;99474.59;4366466;32;32824;-79
2022/01/30 05:21:20;;;;;;;;;;;;;;;6.44;62.79;99472.44;4375927;32;33422;-79
2022/01/30 05:23:50;;;;;;;;;;;;;;;6.61;62.83;99482.47;4357997;32;34901;-79
2022/01/30 05:26:17;;;;;;;;;;;;;;;6.67;62.40;99479.28;4344403;32;34241;-79
2022/01/30 05:28:48;;;;;;;;;;;;;;;6.33;63.44;99483.03;4383889;32;31970;-79
2022/01/30 05:31:33;;;;;;;;;;;;;;;6.25;64.01;99467.81;4434452;32;33373;-79
2022/01/30 05:34:03;;;;;;;;;;;;;;;6.45;63.52;99467.00;4429814;32;36666;-79
2022/01/30 05:36:38;;;;;;;;;;;;;;;6.33;64.33;99472.47;4431833;32;34562;-79
2022/01/30 05:39:14;;;;;;;;;;;;;;;6.40;63.80;99455.13;4420930;32;33388;-79
2022/01/30 05:41:51;;;;;;;;;;;;;;;6.40;64.25;99461.28;4414690;32;34219;-79
2022/01/30 05:44:23;;;;;;;;;;;;;;;6.39;64.29;99467.53;4432627;32;36709;-79
2022/01/30 05:47:13;;;;;;;;;;;;;;;6.53;63.95;99461.94;4433828;32;36795;-79
2022/01/30 05:50:05;;;;;;;;;;;;;;;6.44;64.00;99459.22;4444684;32;33358;-79
2022/01/30 05:52:33;;;;;;;;;;;;;;;6.61;63.72;99462.13;4418194;32;34907;-78
2022/01/30 05:55:03;;;;;;;;;;;;;;;6.48;64.05;99450.06;4432553;32;37044;-79
2022/01/30 05:57:31;;;;;;;;;;;;;;;6.56;63.72;99474.06;4429619;32;33721;-78
2022/01/30 06:00:00;;;;;;;;;;;;;;;6.69;63.41;99459.69;4419560;32;31865;-78
2022/01/30 06:02:30;;;;;;;;;;;;;;;6.52;63.74;99459.44;4418942;32;35048;-79
2022/01/30 06:05:21;;;;;;;;;;;;;;;6.41;64.41;99465.59;4423535;32;34900;-79
2022/01/30 06:07:53;;;;;;;;;;;;;;;6.57;63.69;99467.81;4417081;32;34029;-78
2022/01/30 06:10:24;;;;;;;;;;;;;;;6.49;63.70;99468.44;4432816;32;33376;-78
2022/01/30 06:12:52;;;;;;;;;;;;;;;6.32;64.31;99462.84;4418244;32;33864;-79
2022/01/30 06:15:21;;;;;;;;;;;;;;;6.48;63.76;99437.72;4432535;32;35241;-78
2022/01/30 06:20:45;;;;;;;;;;;;;;;6.55;63.54;99448.59;4362034;27;33889;-80
2022/01/30 06:23:15;;;;;;;;;;;;;;;6.51;63.36;99457.75;4440731;32;33839;-80
2022/01/30 06:25:49;;;;;;;;;;;;;;;6.64;62.95;99472.44;4430038;32;35091;-78
2022/01/30 06:28:24;;;;;;;;;;;;;;;6.15;64.44;99480.09;4425351;32;33492;-81
2022/01/30 06:31:01;;;;;;;;;;;;;;;6.15;64.37;99466.87;4442085;32;32627;-80
2022/01/30 06:33:32;;;;;;;;;;;;;;;6.51;63.47;99463.03;4429459;32;35247;-80
2022/01/30 06:36:04;;;;;;;;;;;;;;;6.62;63.19;99463.00;4413723;32;35155;-79
2022/01/30 06:38:34;;;;;;;;;;;;;;;7.01;62.24;99460.44;4417406;32;34759;-80
2022/01/30 06:41:03;;;;;;;;;;;;;;;6.84;62.75;99465.50;4414716;32;33830;-79
2022/01/30 06:43:34;;;;;;;;;;;;;;;7.09;62.01;99484.44;4438465;32;32830;-80
2022/01/30 06:46:15;;;;;;;;;;;;;;;7.28;61.90;99473.16;4413001;32;35304;-80
2022/01/30 06:48:45;;;;;;;;;;;;;;;7.17;62.48;99492.56;4431300;32;34118;-79
2022/01/30 06:51:22;;;;;;;;;;;;;;;7.33;61.88;99485.03;4411368;32;34759;-79
2022/01/30 06:53:52;;;;;;;;;;;;;;;7.34;61.64;99491.13;4439757;32;35212;-83
2022/01/30 06:56:24;;;;;;;;;;;;;;;7.52;60.66;99501.00;4425098;32;34897;-79
2022/01/30 06:59:02;;;;;;;;;;;;;;;7.68;59.99;99513.72;4413756;32;37535;-80
2022/01/30 07:01:32;;;;;;;;;;;;;;;7.77;59.31;99476.72;4428762;32;35719;-83
2022/01/30 07:04:03;;;;;;;;;;;;;;;7.59;59.38;99474.81;4429034;32;33538;-81
2022/01/30 07:06:31;;;;;;;;;;;;;;;7.91;58.29;99467.56;4429579;32;35930;-79
2022/01/30 07:08:58;;;;;;;;;;;;;;;8.03;58.04;99466.47;4429329;32;34040;-81
2022/01/30 07:11:26;;;;;;;;;;;;;;;8.23;56.55;99466.41;4412797;32;33012;-79
2022/01/30 07:13:53;;;;;;;;;;;;;;;8.13;56.22;99456.72;4414599;32;34143;-79
2022/01/30 07:16:20;;;;;;;;;;;;;;;8.34;55.55;99473.38;4427521;32;33671;-80
2022/01/30 07:18:48;;;;;;;;;;;;;;;8.39;54.72;99464.03;4441122;32;34691;-78
2022/01/30 07:21:16;;;;;;;;;;;;;;;8.13;55.55;99446.94;4417065;32;33839;-79
2022/01/30 07:23:43;;;;;;;;;;;;;;;8.15;55.53;99452.97;4426257;32;34011;-80
2022/01/30 07:26:11;;;;;;;;;;;;;;;8.31;54.84;99444.50;4437073;32;36049;-80
2022/01/30 07:28:38;;;;;;;;;;;;;;;8.63;53.70;99440.59;4441334;32;34270;-80
2022/01/30 07:31:05;;;;;;;;;;;;;;;8.68;53.78;99444.50;4437306;32;33410;-81
2022/01/30 07:33:35;;;;;;;;;;;;;;;8.74;52.80;99451.06;4414340;32;34191;-78
2022/01/30 07:36:02;;;;;;;;;;;;;;;8.50;52.94;99443.53;4414393;32;35941;-81
2022/01/30 07:38:29;;;;;;;;;;;;;;;8.64;51.97;99460.84;4430058;32;34328;-79
2022/01/30 07:40:57;;;;;;;;;;;;;;;8.69;51.75;99464.72;4425663;32;33173;-78
2022/01/30 07:43:24;;;;;;;;;;;;;;;8.53;52.42;99453.03;4426599;32;34801;-80
2022/01/30 07:45:52;;;;;;;;;;;;;;;8.62;51.47;99470.75;4426336;32;36251;-80
2022/01/30 07:48:20;;;;;;;;;;;;;;;8.80;50.80;99472.53;4426047;32;34866;-78
2022/01/30 07:50:47;;;;;;;;;;;;;;;8.74;49.12;99459.00;4429524;32;31091;-79
2022/01/30 07:53:16;;;;;;;;;;;;;;;8.86;48.32;99457.88;4412282;32;33283;-79
2022/01/30 07:55:43;;;;;;;;;;;;;;;8.85;47.47;99456.19;4430965;32;35019;-78
2022/01/30 07:58:10;;;;;;;;;;;;;;;8.98;47.55;99475.31;4415071;32;34603;-82
2022/01/30 08:00:38;;;;;;;;;;;;;;;8.93;47.43;99475.75;4428298;32;32763;-81
2022/01/30 08:03:06;;;;;;;;;;;;;;;8.95;46.78;99460.53;4443006;32;33175;-81
2022/01/30 08:05:33;;;;;;;;;;;;;;;9.08;46.21;99479.62;4415749;32;34802;-82
2022/01/30 08:08:00;;;;;;;;;;;;;;;9.05;47.28;99492.31;4423389;32;33744;-81
2022/01/30 08:10:28;;;;;;;;;;;;;;;9.06;47.82;99512.56;4443200;32;32711;-80
2022/01/30 08:12:56;;;;;;;;;;;;;;;9.05;49.14;99511.75;4414581;32;33095;-80
2022/01/30 08:15:23;;;;;;;;;;;;;;;8.94;51.71;99509.25;4435395;32;34664;-83
2022/01/30 08:17:50;;;;;;;;;;;;;;;8.97;52.35;99511.63;4413752;32;33705;-79
2022/01/30 08:20:20;;;;;;;;;;;;;;;9.28;50.94;99529.03;4439265;32;33383;-79
2022/01/30 08:22:48;;;;;;;;;;;;;;;9.38;50.33;99539.62;4438537;32;34403;-80
2022/01/30 08:25:18;;;;;;;;;;;;;;;8.99;53.11;99559.25;4426018;32;35712;-79
2022/01/30 08:27:45;;;;;;;;;;;;;;;8.96;53.79;99532.97;4412280;32;34289;-79
2022/01/30 08:30:12;;;;;;;;;;;;;;;8.71;54.89;99549.47;4441017;32;32635;-81
2022/01/30 08:32:41;;;;;;;;;;;;;;;8.59;55.34;99532.84;4440966;32;33001;-80
2022/01/30 08:35:09;;;;;;;;;;;;;;;8.83;54.36;99545.69;4427173;32;35714;-79
2022/01/30 08:37:36;;;;;;;;;;;;;;;8.86;54.29;99558.66;4443744;32;34279;-81
2022/01/30 08:40:05;;;;;;;;;;;;;;;8.97;53.49;99561.22;4431926;32;32827;-79
2022/01/30 08:42:32;;;;;;;;;;;;;;;8.86;54.09;99564.81;4441045;32;35187;-80
2022/01/30 08:44:59;;;;;;;;;;;;;;;9.05;53.36;99566.63;4410099;32;35391;-79
2022/01/30 08:47:27;;;;;;;;;;;;;;;8.80;52.81;99557.41;4444509;32;34259;-78
2022/01/30 08:49:54;;;;;;;;;;;;;;;8.84;52.29;99573.87;4412932;32;32261;-78
2022/01/30 08:52:22;;;;;;;;;;;;;;;9.06;51.03;99544.41;4425373;32;34607;-80
2022/01/30 08:54:50;;;;;;;;;;;;;;;8.93;50.91;99552.69;4441654;32;35082;-78
2022/01/30 08:57:17;;;;;;;;;;;;;;;8.95;49.87;99537.47;4428312;32;35185;-80
2022/01/30 08:59:45;;;;;;;;;;;;;;;9.15;48.25;99562.16;4413752;32;33551;-82
2022/01/30 09:02:13;;;;;;;;;;;;;;;9.14;48.31;99563.97;4424291;32;32502;-78
2022/01/30 09:04:40;;;;;;;;;;;;;;;9.17;48.45;99557.56;4426687;32;34915;-86
2022/01/30 09:07:08;;;;;;;;;;;;;;;9.31;48.09;99549.16;4416671;32;34149;-78
2022/01/30 09:09:35;;;;;;;;;;;;;;;9.30;48.08;99558.94;4430527;32;34342;-81
2022/01/30 09:12:03;;;;;;;;;;;;;;;9.37;46.53;99580.44;4427365;32;34823;-78
2022/01/30 09:14:31;;;;;;;;;;;;;;;9.56;47.43;99572.44;4416598;32;36007;-82
2022/01/30 09:16:58;;;;;;;;;;;;;;;9.51;46.77;99582.66;4434587;32;34277;-79
2022/01/30 09:19:40;;;;;;;;;;;;;;;9.97;45.69;99572.88;4433791;32;32462;-79
2022/01/30 09:22:08;;;;;;;;;;;;;;;9.86;43.91;99582.84;4443254;32;34735;-80
2022/01/30 09:24:35;;;;;;;;;;;;;;;9.55;44.77;99600.81;4447677;32;35301;-81
2022/01/30 09:27:03;;;;;;;;;;;;;;;9.67;45.03;99606.81;4429864;32;34940;-79
2022/01/30 09:29:31;;;;;;;;;;;;;;;9.82;44.20;99592.91;4437154;32;33243;-79
2022/01/30 09:31:59;;;;;;;;;;;;;;;10.02;43.96;99589.25;4417763;32;35231;-79
2022/01/30 09:34:27;;;;;;;;;;;;;;;10.15;43.87;99594.22;4443746;32;35721;-79
2022/01/30 09:36:54;;;;;;;;;;;;;;;10.25;43.33;99581.72;4428920;32;34144;-80
2022/01/30 09:39:22;;;;;;;;;;;;;;;10.55;42.28;99595.56;4429999;32;33502;-80
2022/01/30 09:41:50;;;;;;;;;;;;;;;10.26;42.45;99584.25;4421383;32;34374;-79
2022/01/30 09:44:18;;;;;;;;;;;;;;;10.36;42.33;99598.34;4431157;32;34601;-79
2022/01/30 09:46:46;;;;;;;;;;;;;;;10.25;42.38;99585.25;4439045;32;35105;-79
2022/01/30 09:49:13;;;;;;;;;;;;;;;9.91;43.13;99588.56;4419487;32;34342;-78
2022/01/30 09:51:43;;;;;;;;;;;;;;;9.63;44.18;99576.22;4441481;32;32774;-79
2022/01/30 09:54:12;;;;;;;;;;;;;;;9.41;44.47;99558.78;4429473;32;34801;-78
2022/01/30 09:56:39;;;;;;;;;;;;;;;9.12;45.43;99573.91;4427037;32;34524;-79
2022/01/30 09:59:07;;;;;;;;;;;;;;;9.15;46.05;99586.88;4431139;32;32859;-78
2022/01/30 10:01:35;;;;;;;;;;;;;;;9.65;45.55;99585.69;4451702;32;33499;-83
2022/01/30 10:04:04;;;;;;;;;;;;;;;9.85;45.28;99567.88;4459603;32;34899;-80
2022/01/30 10:06:49;;;;;;;;;;;;;;;9.89;44.71;99594.03;4450255;32;34381;-78
2022/01/30 10:09:24;;;;;;;;;;;;;;;9.56;45.40;99591.03;4448688;32;33434;-79
2022/01/30 10:12:10;;;;;;;;;;;;;;;9.62;45.61;99583.31;4435217;32;33622;-79
2022/01/30 10:14:51;;;;;;;;;;;;;;;8.98;45.88;99623.91;4427960;32;35587;-77
2022/01/30 10:17:24;;;;;;;;;;;;;;;8.91;46.61;99604.19;4437034;32;35464;-82
2022/01/30 10:20:26;;;;;;;;;;;;;;;8.43;48.59;99643.87;4431245;32;31562;-84
2022/01/30 10:22:55;;;;;;;;;;;;;;;7.62;52.79;99650.13;4421078;32;34890;-81
2022/01/30 10:25:33;;;;;;;;;;;;;;;7.08;53.26;99654.69;4428832;32;35653;-79
2022/01/30 10:28:17;;;;;;;;;;;;;;;7.04;52.83;99621.56;4441745;32;33977;-80
2022/01/30 10:30:45;;;;;;;;;;;;;;;6.82;51.87;99623.44;4437544;32;32926;-80
2022/01/30 10:33:13;;;;;;;;;;;;;;;6.88;50.00;99605.25;4426044;32;33241;-84
2022/01/30 10:35:47;;;;;;;;;;;;;;;7.04;49.58;99633.91;4427424;32;35116;-78
2022/01/30 10:38:22;;;;;;;;;;;;;;;7.15;49.60;99636.50;4425783;32;35443;-79
2022/01/30 10:40:53;;;;;;;;;;;;;;;7.53;48.87;99628.88;4397446;32;32944;-79
2022/01/30 10:43:21;;;;;;;;;;;;;;;7.59;47.90;99636.31;4430740;32;33012;-78
2022/01/30 10:45:49;;;;;;;;;;;;;;;7.58;48.04;99643.41;4409124;32;35988;-79
2022/01/30 10:48:17;;;;;;;;;;;;;;;7.55;46.20;99632.25;4423990;32;35717;-80
2022/01/30 10:50:47;;;;;;;;;;;;;;;7.77;45.54;99632.09;4427002;32;33492;-80
2022/01/30 10:53:22;;;;;;;;;;;;;;;7.97;45.25;99610.03;4440786;32;33714;-81
2022/01/30 10:55:50;;;;;;;;;;;;;;;7.83;45.00;99642.19;4423737;32;35000;-79
2022/01/30 10:58:19;;;;;;;;;;;;;;;8.18;44.62;99627.56;4425259;32;34669;-77
2022/01/30 11:00:48;;;;;;;;;;;;;;;8.30;44.81;99625.69;4422442;32;33653;-81
2022/01/30 11:03:34;;;;;;;;;;;;;;;8.52;43.94;99624.50;4423922;32;34324;-79
2022/01/30 11:06:01;;;;;;;;;;;;;;;9.00;43.27;99636.03;4435666;32;34594;-79
2022/01/30 11:08:31;;;;;;;;;;;;;;;9.32;42.23;99604.75;4436773;32;34524;-84
2022/01/30 11:11:02;;;;;;;;;;;;;;;9.38;41.27;99612.16;4433595;32;32812;-78
2022/01/30 11:13:33;;;;;;;;;;;;;;;9.51;41.62;99607.41;4430989;32;33495;-78
2022/01/30 11:16:56;;;;;;;;;;;;;;;9.17;42.27;99600.84;4424329;32;35100;-78
2022/01/30 11:18:48;;;;;;;;;;;;;;;9.30;41.94;99598.75;4428261;32;33312;-77
2022/01/30 11:21:20;;;;;;;;;;;;;;;9.18;41.89;99589.25;4443658;32;34107;-77
2022/01/30 11:23:49;;;;;;;;;;;;;;;9.18;41.30;99578.62;4418649;32;34891;-79
2022/01/30 11:26:17;;;;;;;;;;;;;;;8.89;41.04;99599.03;4421847;32;35075;-78
2022/01/30 11:28:45;;;;;;;;;;;;;;;8.79;40.56;99592.88;4446571;32;34107;-85
2022/01/30 11:31:16;;;;;;;;;;;;;;;8.72;40.41;99588.28;4448433;32;33102;-79
2022/01/30 11:33:44;;;;;;;;;;;;;;;8.78;40.73;99593.00;4452399;32;33335;-77
2022/01/30 11:36:14;;;;;;;;;;;;;;;8.89;43.11;99590.25;4419093;32;34928;-78
2022/01/30 11:38:44;;;;;;;;;;;;;;;8.56;46.41;99596.75;4436495;32;34571;-77
2022/01/30 11:41:19;;;;;;;;;;;;;;;8.57;44.97;99592.28;4432417;32;33827;-77
2022/01/30 11:44:05;;;;;;;;;;;;;;;8.75;44.55;99609.19;4440945;32;32995;-80
2022/01/30 11:46:33;;;;;;;;;;;;;;;8.08;47.96;99584.28;4439911;32;35627;-79
2022/01/30 11:49:13;;;;;;;;;;;;;;;7.95;51.42;99588.16;4416252;32;34387;-80
2022/01/30 11:52:10;;;;;;;;;;;;;;;8.18;49.75;99585.16;4424834;32;32854;-80
2022/01/30 11:54:38;;;;;;;;;;;;;;;8.37;46.96;99572.00;4413414;32;34223;-81
2022/01/30 11:57:20;;;;;;;;;;;;;;;8.62;44.65;99545.81;4425256;32;35111;-80
2022/01/30 11:59:50;;;;;;;;;;;;;;;8.76;44.23;99553.38;4422502;32;33995;-81
2022/01/30 12:02:22;;;;;;;;;;;;;;;8.90;42.95;99565.38;4403479;32;32188;-80
2022/01/30 12:04:56;;;;;;;;;;;;;;;9.03;41.62;99527.00;4407032;32;33707;-80
2022/01/30 12:07:30;;;;;;;;;;;;;;;9.17;41.52;99528.37;4421759;32;36264;-79
2022/01/30 12:10:18;;;;;;;;;;;;;;;9.14;40.74;99540.09;4411150;32;36661;-81
2022/01/30 12:12:46;;;;;;;;;;;;;;;9.15;40.01;99535.63;4421966;32;33503;-78
2022/01/30 12:15:33;;;;;;;;;;;;;;;8.67;40.26;99551.56;4410348;32;34156;-82
2022/01/30 12:18:01;;;;;;;;;;;;;;;9.06;40.80;99532.00;4417536;32;35020;-81
2022/01/30 12:20:31;;;;;;;;;;;;;;;9.16;39.41;99537.31;4424190;32;34867;-81
2022/01/30 12:22:58;;;;;;;;;;;;;;;9.23;38.32;99522.47;4396638;32;32803;-77
2022/01/30 12:25:30;;;;;;;;;;;;;;;8.97;38.42;99551.41;4416241;32;34107;-80
2022/01/30 12:28:00;;;;;;;;;;;;;;;9.20;38.83;99531.59;4392141;32;35390;-82
2022/01/30 12:30:36;;;;;;;;;;;;;;;8.92;39.16;99558.97;4420708;32;35504;-77
2022/01/30 12:33:24;;;;;;;;;;;;;;;9.01;39.83;99544.03;4414982;32;33421;-79
2022/01/30 12:35:51;;;;;;;;;;;;;;;9.30;39.63;99537.72;4405363;32;33733;-83
2022/01/30 12:38:28;;;;;;;;;;;;;;;8.97;39.62;99527.53;4418743;32;36377;-83
2022/01/30 12:40:55;;;;;;;;;;;;;;;8.79;39.87;99541.66;4411739;32;34874;-80
2022/01/30 12:43:31;;;;;;;;;;;;;;;8.90;40.04;99533.56;4408614;32;32675;-81
2022/01/30 12:46:08;;;;;;;;;;;;;;;9.05;39.85;99518.88;4412191;32;35440;-78
2022/01/30 12:48:35;;;;;;;;;;;;;;;8.97;39.57;99508.16;4425335;32;34566;-79
2022/01/30 12:51:07;;;;;;;;;;;;;;;9.37;39.22;99522.84;4412210;32;34092;-80
2022/01/30 12:53:36;;;;;;;;;;;;;;;9.26;38.86;99525.69;4413964;32;32856;-81
2022/01/30 12:56:04;;;;;;;;;;;;;;;9.37;38.44;99530.00;4424881;32;34269;-77
2022/01/30 12:58:33;;;;;;;;;;;;;;;9.59;38.95;99532.31;4413557;32;34769;-81
2022/01/30 13:01:05;;;;;;;;;;;;;;;9.15;40.26;99535.63;4394300;32;34719;-78
2022/01/30 13:03:33;;;;;;;;;;;;;;;9.19;40.91;99542.31;4414347;32;32890;-79
2022/01/30 13:06:00;;;;;;;;;;;;;;;9.44;40.17;99528.47;4418820;32;33745;-79
2022/01/30 13:08:44;;;;;;;;;;;;;;;9.62;40.00;99530.22;4417592;32;35198;-81
2022/01/30 13:11:19;;;;;;;;;;;;;;;9.46;39.51;99515.88;4413515;32;34590;-81
2022/01/30 13:13:56;;;;;;;;;;;;;;;9.30;39.38;99503.19;4410860;32;31986;-80
2022/01/30 13:16:28;;;;;;;;;;;;;;;9.51;38.70;99511.81;4396152;32;32951;-81
2022/01/30 13:18:55;;;;;;;;;;;;;;;9.71;38.01;99492.16;4423752;32;34586;-79
2022/01/30 13:21:28;;;;;;;;;;;;;;;9.65;37.98;99521.13;4412172;32;34849;-81
2022/01/30 13:24:04;;;;;;;;;;;;;;;9.83;37.57;99475.03;4411988;32;33247;-79
2022/01/30 13:26:33;;;;;;;;;;;;;;;9.72;36.62;99487.69;4423561;32;32164;-80
2022/01/30 13:29:02;;;;;;;;;;;;;;;9.40;36.66;99497.84;4418861;32;35249;-81
2022/01/30 13:31:31;;;;;;;;;;;;;;;9.65;37.00;99486.59;4426073;32;34697;-78
2022/01/30 13:34:06;;;;;;;;;;;;;;;9.68;36.55;99507.53;4400448;32;34396;-81
2022/01/30 13:36:34;;;;;;;;;;;;;;;9.13;37.85;99524.31;4412603;32;33701;-79
2022/01/30 13:39:06;;;;;;;;;;;;;;;9.14;37.73;99521.53;4415096;32;35151;-84
2022/01/30 13:41:47;;;;;;;;;;;;;;;9.24;37.99;99545.38;4427556;32;34490;-82
2022/01/30 13:44:23;;;;;;;;;;;;;;;9.34;38.42;99532.91;4424220;32;33904;-81
2022/01/30 13:47:02;;;;;;;;;;;;;;;10.15;37.01;99543.72;4414247;32;33068;-83
2022/01/30 13:49:30;;;;;;;;;;;;;;;9.34;38.63;99578.91;4412729;32;34746;-82
2022/01/30 13:52:05;;;;;;;;;;;;;;;8.43;40.41;99563.53;4413250;32;34794;-80
2022/01/30 13:54:33;;;;;;;;;;;;;;;8.53;41.03;99585.59;4412563;32;33826;-82
2022/01/30 13:57:01;;;;;;;;;;;;;;;8.10;42.62;99597.41;4420350;32;34358;-79
2022/01/30 13:59:29;;;;;;;;;;;;;;;8.54;42.15;99579.31;4385017;32;35352;-81
2022/01/30 14:01:58;;;;;;;;;;;;;;;8.24;42.10;99612.97;4412302;32;34652;-78
2022/01/30 14:04:26;;;;;;;;;;;;;;;8.53;41.08;99588.22;4412058;32;32466;-79
2022/01/30 14:06:55;;;;;;;;;;;;;;;8.32;42.92;99598.09;4410982;32;33103;-79
2022/01/30 14:09:25;;;;;;;;;;;;;;;8.94;41.19;99607.41;4411905;32;35257;-81
2022/01/30 14:12:02;;;;;;;;;;;;;;;9.05;40.28;99612.59;4427033;32;35084;-80
2022/01/30 14:14:30;;;;;;;;;;;;;;;8.93;39.62;99581.03;4412591;32;33056;-79